createdAt,value
2022-09-24T00:01:31.769Z,15.10
2022-09-24T00:04:01.323Z,15.00
2022-09-24T00:06:29.736Z,15.10
2022-09-24T00:08:57.278Z,15.20
2022-09-24T00:11:25.643Z,15.20
2022-09-24T00:13:53.124Z,15.10
2022-09-24T00:16:21.576Z,15.10
2022-09-24T00:18:48.148Z,14.90
2022-09-24T00:21:15.846Z,14.80
2022-09-24T00:23:42.601Z,14.80
2022-09-24T00:26:31.243Z,14.60
2022-09-24T00:28:59.075Z,14.70
2022-09-24T00:31:26.316Z,14.60
2022-09-24T00:33:54.305Z,14.30
2022-09-24T00:36:22.490Z,14.30
2022-09-24T00:38:51.346Z,14.60
2022-09-24T00:41:20.338Z,14.60
2022-09-24T00:43:48.512Z,14.50
2022-09-24T00:46:43.172Z,14.40
2022-09-24T00:49:14.254Z,14.50
2022-09-24T00:51:43.034Z,14.40
2022-09-24T00:54:30.501Z,14.40
2022-09-24T00:56:57.784Z,14.40
2022-09-24T00:59:25.315Z,14.50
2022-09-24T01:01:53.946Z,14.20
2022-09-24T01:04:21.268Z,14.10
2022-09-24T01:06:50.957Z,14.20
2022-09-24T01:09:18.943Z,14.00
2022-09-24T01:11:59.278Z,14.30
2022-09-24T01:14:47.782Z,14.40
2022-09-24T01:17:22.975Z,14.50
2022-09-24T01:20:11.193Z,14.40
2022-09-24T01:22:40.654Z,14.50
2022-09-24T01:25:10.160Z,14.50
2022-09-24T01:27:52.924Z,14.30
2022-09-24T01:30:19.517Z,14.30
2022-09-24T01:32:53.988Z,14.00
2022-09-24T01:35:27.483Z,13.90
2022-09-24T01:38:00.851Z,13.80
2022-09-24T01:40:28.411Z,13.80
2022-09-24T01:42:57.446Z,14.10
2022-09-24T01:45:25.516Z,14.00
2022-09-24T01:47:52.004Z,14.10
2022-09-24T01:50:19.723Z,14.20
2022-09-24T01:52:54.189Z,14.30
2022-09-24T01:55:24.577Z,14.20
2022-09-24T01:58:08.936Z,14.20
2022-09-24T02:00:38.240Z,14.00
2022-09-24T02:03:07.266Z,14.30
2022-09-24T02:05:38.829Z,14.30
2022-09-24T02:08:22.405Z,14.30
2022-09-24T02:10:56.590Z,14.00
2022-09-24T02:13:26.669Z,14.10
2022-09-24T02:15:57.085Z,14.20
2022-09-24T02:18:27.060Z,14.10
2022-09-24T02:20:54.429Z,14.20
2022-09-24T02:23:22.835Z,14.20
2022-09-24T02:25:57.413Z,14.20
2022-09-24T02:28:24.394Z,14.10
2022-09-24T02:30:55.036Z,14.20
2022-09-24T02:33:42.273Z,14.20
2022-09-24T02:36:09.151Z,14.20
2022-09-24T02:38:35.608Z,14.30
2022-09-24T02:41:02.113Z,14.00
2022-09-24T02:43:28.705Z,14.10
2022-09-24T02:45:55.163Z,14.10
2022-09-24T02:48:21.624Z,14.20
2022-09-24T02:50:48.166Z,14.20
2022-09-24T02:53:14.585Z,14.30
2022-09-24T02:55:41.774Z,14.30
2022-09-24T02:58:08.287Z,14.20
2022-09-24T03:00:34.764Z,14.20
2022-09-24T03:03:01.340Z,14.30
2022-09-24T03:05:27.857Z,14.30
2022-09-24T03:07:54.959Z,14.20
2022-09-24T03:10:21.410Z,14.20
2022-09-24T03:12:47.966Z,14.30
2022-09-24T03:15:14.503Z,14.20
2022-09-24T03:17:40.964Z,14.20
2022-09-24T03:20:07.847Z,14.30
2022-09-24T03:22:34.306Z,14.20
2022-09-24T03:25:01.601Z,14.30
2022-09-24T03:27:28.067Z,14.20
2022-09-24T03:30:13.288Z,14.10
2022-09-24T03:32:40.600Z,14.20
2022-09-24T03:35:07.618Z,14.20
2022-09-24T03:37:37.013Z,14.20
2022-09-24T03:40:06.782Z,14.20
2022-09-24T03:42:34.482Z,14.10
2022-09-24T03:45:00.969Z,14.20
2022-09-24T03:47:27.456Z,14.40
2022-09-24T03:49:53.974Z,14.10
2022-09-24T03:52:20.498Z,13.80
2022-09-24T03:54:47.001Z,13.90
2022-09-24T03:57:14.840Z,13.20
2022-09-24T03:59:42.447Z,13.70
2022-09-24T04:02:09.827Z,13.80
2022-09-24T04:04:36.344Z,13.00
2022-09-24T04:07:03.085Z,13.10
2022-09-24T04:09:29.528Z,13.00
2022-09-24T04:11:56.236Z,13.20
2022-09-24T04:14:22.807Z,13.50
2022-09-24T04:16:49.282Z,13.50
2022-09-24T04:19:16.075Z,13.80
2022-09-24T04:21:43.301Z,13.70
2022-09-24T04:24:09.822Z,13.40
2022-09-24T04:26:36.312Z,13.60
2022-09-24T04:29:03.072Z,13.60
2022-09-24T04:31:32.929Z,13.70
2022-09-24T04:33:59.560Z,13.40
2022-09-24T04:36:26.039Z,13.10
2022-09-24T04:38:52.469Z,13.30
2022-09-24T04:41:18.940Z,13.50
2022-09-24T04:43:46.641Z,13.80
2022-09-24T04:46:13.568Z,13.90
2022-09-24T04:48:40.355Z,13.90
2022-09-24T04:51:07.644Z,14.00
2022-09-24T04:53:37.467Z,14.10
2022-09-24T04:56:05.017Z,14.10
2022-09-24T04:58:31.922Z,13.80
2022-09-24T05:01:03.762Z,13.80
2022-09-24T05:03:30.391Z,14.00
2022-09-24T05:05:56.833Z,14.00
2022-09-24T05:08:23.270Z,13.90
2022-09-24T05:10:49.695Z,13.90
2022-09-24T05:13:16.340Z,13.90
2022-09-24T05:15:43.503Z,13.70
2022-09-24T05:18:10.045Z,13.80
2022-09-24T05:20:36.707Z,13.80
2022-09-24T05:23:03.146Z,14.00
2022-09-24T05:25:29.594Z,13.90
2022-09-24T05:27:56.262Z,13.70
2022-09-24T05:30:24.547Z,13.50
2022-09-24T05:32:54.273Z,13.20
2022-09-24T05:35:22.965Z,13.50
2022-09-24T05:37:49.825Z,13.70
2022-09-24T05:40:34.899Z,13.80
2022-09-24T05:43:01.834Z,13.80
2022-09-24T05:45:31.979Z,13.80
2022-09-24T05:47:59.943Z,13.70
2022-09-24T05:50:26.462Z,14.00
2022-09-24T05:52:52.906Z,14.20
2022-09-24T05:55:19.631Z,14.20
2022-09-24T05:57:46.083Z,14.00
2022-09-24T06:00:12.645Z,14.20
2022-09-24T06:02:39.524Z,14.20
2022-09-24T06:05:06.654Z,13.90
2022-09-24T06:07:33.128Z,13.90
2022-09-24T06:10:00.748Z,13.90
2022-09-24T06:12:27.368Z,14.20
2022-09-24T06:14:54.030Z,14.40
2022-09-24T06:17:20.989Z,14.40
2022-09-24T06:19:47.523Z,14.60
2022-09-24T06:22:14.006Z,14.70
2022-09-24T06:24:40.958Z,14.00
2022-09-24T06:27:07.447Z,13.80
2022-09-24T06:29:33.893Z,14.00
2022-09-24T06:32:01.843Z,14.20
2022-09-24T06:34:28.683Z,14.20
2022-09-24T06:36:55.662Z,13.90
2022-09-24T06:39:26.979Z,14.00
2022-09-24T06:41:53.559Z,14.00
2022-09-24T06:44:21.860Z,14.00
2022-09-24T06:46:48.411Z,13.80
2022-09-24T06:49:14.985Z,13.90
2022-09-24T06:51:41.431Z,14.00
2022-09-24T06:54:07.898Z,13.80
2022-09-24T06:56:34.341Z,13.40
2022-09-24T06:59:00.782Z,13.50
2022-09-24T07:01:27.273Z,13.90
2022-09-24T07:03:53.758Z,13.80
2022-09-24T07:06:20.364Z,13.70
2022-09-24T07:08:51.147Z,13.90
2022-09-24T07:11:17.629Z,14.20
2022-09-24T07:13:44.057Z,13.80
2022-09-24T07:16:10.572Z,13.80
2022-09-24T07:18:38.607Z,14.10
2022-09-24T07:21:05.235Z,14.00
2022-09-24T07:23:31.691Z,13.70
2022-09-24T07:25:58.160Z,13.60
2022-09-24T07:28:24.739Z,13.40
2022-09-24T07:30:57.753Z,13.30
2022-09-24T07:33:24.329Z,12.90
2022-09-24T07:35:51.043Z,13.20
2022-09-24T07:38:17.606Z,13.60
2022-09-24T07:40:44.689Z,13.50
2022-09-24T07:43:13.942Z,13.30
2022-09-24T07:45:41.393Z,13.40
2022-09-24T07:48:08.139Z,13.40
2022-09-24T07:50:39.247Z,13.70
2022-09-24T07:53:06.514Z,13.60
2022-09-24T07:55:39.282Z,13.60
2022-09-24T07:58:06.868Z,13.80
2022-09-24T08:00:33.427Z,13.90
2022-09-24T08:03:01.930Z,14.00
2022-09-24T08:05:28.437Z,13.40
2022-09-24T08:07:56.256Z,13.60
2022-09-24T08:10:23.763Z,13.60
2022-09-24T08:12:50.393Z,13.80
2022-09-24T08:15:17.093Z,13.90
2022-09-24T08:17:43.540Z,13.90
2022-09-24T08:20:10.371Z,14.30
2022-09-24T08:22:36.819Z,14.30
2022-09-24T08:25:04.338Z,14.70
2022-09-24T08:27:32.838Z,14.70
2022-09-24T08:30:00.524Z,15.00
2022-09-24T08:32:29.118Z,15.10
2022-09-24T08:34:55.579Z,15.10
2022-09-24T08:37:22.059Z,15.00
2022-09-24T08:39:48.599Z,14.90
2022-09-24T08:42:35.292Z,15.00
2022-09-24T08:45:21.452Z,15.00
2022-09-24T08:48:13.756Z,15.30
2022-09-24T08:50:47.190Z,15.30
2022-09-24T08:53:23.526Z,15.40
2022-09-24T08:55:55.346Z,15.60
2022-09-24T08:58:24.901Z,14.90
2022-09-24T09:01:10.301Z,15.10
2022-09-24T09:03:47.596Z,15.30
2022-09-24T09:06:23.061Z,15.30
2022-09-24T09:09:12.619Z,15.60
2022-09-24T09:11:40.009Z,16.30
2022-09-24T09:14:15.205Z,16.30
2022-09-24T09:16:50.566Z,16.70
2022-09-24T09:19:18.000Z,16.20
2022-09-24T09:21:52.595Z,16.30
2022-09-24T09:24:23.290Z,16.10
2022-09-24T09:26:54.542Z,15.60
2022-09-24T09:29:24.153Z,16.40
2022-09-24T09:32:02.620Z,16.50
2022-09-24T09:34:47.886Z,16.20
2022-09-24T09:37:29.428Z,16.60
2022-09-24T09:40:19.687Z,16.80
2022-09-24T09:42:47.274Z,16.50
2022-09-24T09:45:28.058Z,16.40
2022-09-24T09:47:56.997Z,16.60
2022-09-24T09:50:26.125Z,16.70
2022-09-24T09:52:52.535Z,16.80
2022-09-24T09:55:26.757Z,16.80
2022-09-24T09:57:54.010Z,16.60
2022-09-24T10:00:27.540Z,16.40
2022-09-24T10:02:54.431Z,16.70
2022-09-24T10:05:27.054Z,17.10
2022-09-24T10:07:54.990Z,17.00
2022-09-24T10:10:24.145Z,17.10
2022-09-24T10:13:09.447Z,16.70
2022-09-24T10:15:45.380Z,17.10
2022-09-24T10:18:14.290Z,17.10
2022-09-24T10:20:46.808Z,16.80
2022-09-24T10:23:19.326Z,16.90
2022-09-24T10:25:51.308Z,16.80
2022-09-24T10:28:38.405Z,16.70
2022-09-24T10:31:10.780Z,16.90
2022-09-24T10:33:38.169Z,17.00
2022-09-24T10:36:22.499Z,16.70
2022-09-24T10:38:49.802Z,16.70
2022-09-24T10:41:27.313Z,16.90
2022-09-24T10:43:54.862Z,16.60
2022-09-24T10:46:39.830Z,16.50
2022-09-24T10:49:18.490Z,16.80
2022-09-24T10:51:44.911Z,17.30
2022-09-24T10:54:44.179Z,17.50
2022-09-24T10:57:31.945Z,17.70
2022-09-24T11:00:11.891Z,17.80
2022-09-24T11:02:47.948Z,17.20
2022-09-24T11:05:22.458Z,17.00
2022-09-24T11:08:12.159Z,17.80
2022-09-24T11:11:09.879Z,17.90
2022-09-24T11:14:08.943Z,18.50
2022-09-24T11:16:49.549Z,17.90
2022-09-24T11:19:29.019Z,18.10
2022-09-24T11:22:11.921Z,18.10
2022-09-24T11:25:08.107Z,18.70
2022-09-24T11:27:59.550Z,18.70
2022-09-24T11:30:32.259Z,19.20
2022-09-24T11:33:11.965Z,19.60
2022-09-24T11:36:15.589Z,20.30
2022-09-24T11:38:50.401Z,21.00
2022-09-24T11:41:41.665Z,21.60
2022-09-24T11:44:27.040Z,21.60
2022-09-24T11:47:06.189Z,21.10
2022-09-24T11:49:48.446Z,20.40
2022-09-24T11:52:28.851Z,20.80
2022-09-24T11:55:10.725Z,19.90
2022-09-24T11:57:38.735Z,20.20
2022-09-24T12:00:08.417Z,20.30
2022-09-24T12:02:39.888Z,20.50
2022-09-24T12:05:14.019Z,20.50
2022-09-24T12:07:47.373Z,20.70
2022-09-24T12:10:33.536Z,21.00
2022-09-24T12:13:12.824Z,20.50
2022-09-24T12:15:56.877Z,20.80
2022-09-24T12:18:27.012Z,20.60
2022-09-24T12:21:00.155Z,20.40
2022-09-24T12:23:29.268Z,20.60
2022-09-24T12:25:58.064Z,20.50
2022-09-24T12:28:45.752Z,19.90
2022-09-24T12:31:36.871Z,19.40
2022-09-24T12:34:21.668Z,19.60
2022-09-24T12:37:01.742Z,19.80
2022-09-24T12:40:10.210Z,20.00
2022-09-24T12:42:41.812Z,20.00
2022-09-24T12:45:14.881Z,19.90
2022-09-24T12:47:50.934Z,20.00
2022-09-24T12:50:31.010Z,20.00
2022-09-24T12:52:57.980Z,19.50
2022-09-24T12:55:35.382Z,18.90
2022-09-24T12:58:05.925Z,19.20
2022-09-24T13:00:32.958Z,19.60
2022-09-24T13:03:00.561Z,19.70
2022-09-24T13:05:46.196Z,19.80
2022-09-24T13:08:16.904Z,19.80
2022-09-24T13:10:55.796Z,19.50
2022-09-24T13:13:27.511Z,19.40
2022-09-24T13:16:14.571Z,19.50
2022-09-24T13:18:41.243Z,19.80
2022-09-24T13:21:08.922Z,19.80
2022-09-24T13:23:38.644Z,19.80
2022-09-24T13:26:09.070Z,19.80
2022-09-24T13:28:58.235Z,20.00
2022-09-24T13:31:27.816Z,20.00
2022-09-24T13:34:22.116Z,20.00
2022-09-24T13:36:58.176Z,20.20
2022-09-24T13:40:01.461Z,20.00
2022-09-24T13:42:56.195Z,20.00
2022-09-24T13:45:22.870Z,20.30
2022-09-24T13:47:52.189Z,20.20
2022-09-24T13:50:29.104Z,20.00
2022-09-24T13:53:07.502Z,20.20
2022-09-24T13:55:37.558Z,20.30
2022-09-24T13:58:04.090Z,20.10
2022-09-24T14:00:32.125Z,20.20
2022-09-24T14:03:02.758Z,19.50
2022-09-24T14:05:34.030Z,19.40
2022-09-24T14:08:09.083Z,19.30
2022-09-24T14:10:36.541Z,19.20
2022-09-24T14:13:12.630Z,19.50
2022-09-24T14:15:55.474Z,20.00
2022-09-24T14:18:26.232Z,20.30
2022-09-24T14:20:58.756Z,19.90
2022-09-24T14:23:28.565Z,19.60
2022-09-24T14:25:55.575Z,19.60
2022-09-24T14:28:22.509Z,19.20
2022-09-24T14:30:54.175Z,19.40
2022-09-24T14:33:25.835Z,19.30
2022-09-24T14:35:54.509Z,19.40
2022-09-24T14:38:26.687Z,19.20
2022-09-24T14:40:56.569Z,19.10
2022-09-24T14:43:45.114Z,19.20
2022-09-24T14:46:28.319Z,19.20
2022-09-24T14:49:24.475Z,19.20
2022-09-24T14:52:02.343Z,19.50
2022-09-24T14:54:36.899Z,19.10
2022-09-24T14:57:18.533Z,19.20
2022-09-24T14:59:54.843Z,19.20
2022-09-24T15:02:24.336Z,18.90
2022-09-24T15:04:56.404Z,18.80
2022-09-24T15:07:25.854Z,18.60
2022-09-24T15:10:03.855Z,18.70
2022-09-24T15:12:33.052Z,19.00
2022-09-24T15:15:05.134Z,18.80
2022-09-24T15:17:39.214Z,18.60
2022-09-24T15:20:06.026Z,18.50
2022-09-24T15:22:32.476Z,18.40
2022-09-24T15:25:02.026Z,18.70
2022-09-24T15:27:32.029Z,18.70
2022-09-24T15:30:00.644Z,18.70
2022-09-24T15:32:38.606Z,18.70
2022-09-24T15:35:12.105Z,18.50
2022-09-24T15:37:45.284Z,18.40
2022-09-24T15:40:20.670Z,18.60
2022-09-24T15:42:48.923Z,18.60
2022-09-24T15:45:21.564Z,18.30
2022-09-24T15:47:54.547Z,18.30
2022-09-24T15:50:23.204Z,18.30
2022-09-24T15:52:50.792Z,18.30
2022-09-24T15:55:22.910Z,18.30
2022-09-24T15:57:53.092Z,18.00
2022-09-24T16:00:24.287Z,18.10
2022-09-24T16:02:53.047Z,18.20
2022-09-24T16:05:20.042Z,18.30
2022-09-24T16:07:46.901Z,18.40
2022-09-24T16:10:18.377Z,18.50
2022-09-24T16:12:44.959Z,18.40
2022-09-24T16:15:13.363Z,18.40
2022-09-24T16:17:40.334Z,18.70
2022-09-24T16:20:07.588Z,19.00
2022-09-24T16:22:36.621Z,18.70
2022-09-24T16:25:03.540Z,18.60
2022-09-24T16:27:31.368Z,18.60
2022-09-24T16:29:57.975Z,18.40
2022-09-24T16:32:24.613Z,18.70
2022-09-24T16:34:51.126Z,18.20
2022-09-24T16:37:18.348Z,18.10
2022-09-24T16:39:44.877Z,18.00
2022-09-24T16:42:11.589Z,18.20
2022-09-24T16:44:38.033Z,18.10
2022-09-24T16:47:04.610Z,18.00
2022-09-24T16:49:31.057Z,18.00
2022-09-24T16:51:57.537Z,18.10
2022-09-24T16:54:24.124Z,17.90
2022-09-24T16:56:52.038Z,17.80
2022-09-24T16:59:20.968Z,17.70
2022-09-24T17:01:47.475Z,17.50
2022-09-24T17:04:13.938Z,17.60
2022-09-24T17:06:40.612Z,17.90
2022-09-24T17:09:25.641Z,17.80
2022-09-24T17:11:52.147Z,18.10
2022-09-24T17:14:18.867Z,18.30
2022-09-24T17:16:45.553Z,17.80
2022-09-24T17:19:12.777Z,17.70
2022-09-24T17:21:41.823Z,17.70
2022-09-24T17:24:08.643Z,17.50
2022-09-24T17:26:35.640Z,17.60
2022-09-24T17:29:02.111Z,17.70
2022-09-24T17:31:28.768Z,17.70
2022-09-24T17:34:00.703Z,17.50
2022-09-24T17:36:28.917Z,17.40
2022-09-24T17:38:56.278Z,17.20
2022-09-24T17:41:26.085Z,17.40
2022-09-24T17:43:52.668Z,17.50
2022-09-24T17:46:24.110Z,17.30
2022-09-24T17:48:52.663Z,17.20
2022-09-24T17:51:20.334Z,17.20
2022-09-24T17:53:47.135Z,17.20
2022-09-24T17:56:14.557Z,17.10
2022-09-24T17:58:43.529Z,16.90
2022-09-24T18:01:12.482Z,16.90
2022-09-24T18:03:39.366Z,17.00
2022-09-24T18:06:08.461Z,16.80
2022-09-24T18:08:38.696Z,16.80
2022-09-24T18:11:09.960Z,16.60
2022-09-24T18:13:36.572Z,16.50
2022-09-24T18:16:14.254Z,16.50
2022-09-24T18:18:41.849Z,16.80
2022-09-24T18:21:13.243Z,17.00
2022-09-24T18:23:40.393Z,16.80
2022-09-24T18:26:15.938Z,16.80
2022-09-24T18:28:43.276Z,16.50
2022-09-24T18:31:10.357Z,16.40
2022-09-24T18:33:38.844Z,16.40
2022-09-24T18:36:07.647Z,16.60
2022-09-24T18:38:34.570Z,16.60
2022-09-24T18:41:06.049Z,16.50
2022-09-24T18:43:32.569Z,16.40
2022-09-24T18:46:04.071Z,16.40
2022-09-24T18:48:31.057Z,16.40
2022-09-24T18:50:57.830Z,16.50
2022-09-24T18:53:25.155Z,16.40
2022-09-24T18:55:51.744Z,16.20
2022-09-24T18:58:18.250Z,16.20
2022-09-24T19:00:50.893Z,16.40
2022-09-24T19:03:21.821Z,16.30
2022-09-24T19:05:50.350Z,16.30
2022-09-24T19:08:17.617Z,16.30
2022-09-24T19:10:44.199Z,16.10
2022-09-24T19:13:10.996Z,16.30
2022-09-24T19:15:38.729Z,16.20
2022-09-24T19:18:07.183Z,16.10
2022-09-24T19:20:40.884Z,16.00
2022-09-24T19:23:08.229Z,15.80
2022-09-24T19:25:36.826Z,15.80
2022-09-24T19:28:05.143Z,16.40
2022-09-24T19:30:46.370Z,16.30
2022-09-24T19:33:15.857Z,16.40
2022-09-24T19:35:47.129Z,16.30
2022-09-24T19:38:16.588Z,16.30
2022-09-24T19:40:43.285Z,16.30
2022-09-24T19:43:09.793Z,16.20
2022-09-24T19:45:37.174Z,16.30
2022-09-24T19:48:03.676Z,16.10
2022-09-24T19:50:34.234Z,16.20
2022-09-24T19:53:00.735Z,16.40
2022-09-24T19:55:28.742Z,16.20
2022-09-24T19:57:56.329Z,16.30
2022-09-24T20:00:24.949Z,16.10
2022-09-24T20:02:52.316Z,16.00
2022-09-24T20:05:18.978Z,16.10
2022-09-24T20:07:46.403Z,16.10
2022-09-24T20:10:12.894Z,15.90
2022-09-24T20:12:42.622Z,15.80
2022-09-24T20:15:10.296Z,15.70
2022-09-24T20:17:36.796Z,15.80
2022-09-24T20:20:04.157Z,15.90
2022-09-24T20:22:33.207Z,16.10
2022-09-24T20:24:59.682Z,16.00
2022-09-24T20:27:44.859Z,16.00
2022-09-24T20:30:11.416Z,15.90
2022-09-24T20:32:37.880Z,15.70
2022-09-24T20:35:04.703Z,15.90
2022-09-24T20:37:34.508Z,15.90
2022-09-24T20:40:01.031Z,16.00
2022-09-24T20:42:27.494Z,15.80
2022-09-24T20:44:54.240Z,15.90
2022-09-24T20:47:29.459Z,15.90
2022-09-24T20:49:55.990Z,15.80
2022-09-24T20:52:22.491Z,15.90
2022-09-24T20:54:48.934Z,15.90
2022-09-24T20:57:15.427Z,16.00
2022-09-24T20:59:41.909Z,15.90
2022-09-24T21:02:10.161Z,16.20
2022-09-24T21:04:37.282Z,16.10
2022-09-24T21:07:04.027Z,15.90
2022-09-24T21:09:30.565Z,15.90
2022-09-24T21:11:57.056Z,15.90
2022-09-24T21:14:23.733Z,15.90
2022-09-24T21:16:50.276Z,15.80
2022-09-24T21:19:16.811Z,15.50
2022-09-24T21:21:43.333Z,15.60
2022-09-24T21:24:12.474Z,15.50
2022-09-24T21:26:39.362Z,15.60
2022-09-24T21:29:09.042Z,15.60
2022-09-24T21:31:37.075Z,15.60
2022-09-24T21:34:05.074Z,15.90
2022-09-24T21:36:37.523Z,15.90
2022-09-24T21:39:14.420Z,15.80
2022-09-24T21:41:41.211Z,15.80
2022-09-24T21:44:10.119Z,15.60
2022-09-24T21:46:37.490Z,15.70
2022-09-24T21:49:04.183Z,15.70
2022-09-24T21:51:31.346Z,15.80
2022-09-24T21:54:01.003Z,15.90
2022-09-24T21:56:28.724Z,16.00
2022-09-24T21:58:55.914Z,15.90
2022-09-24T22:01:26.117Z,15.70
2022-09-24T22:03:56.618Z,16.00
2022-09-24T22:06:31.123Z,15.90
2022-09-24T22:09:02.487Z,15.90
2022-09-24T22:11:29.162Z,15.80
2022-09-24T22:14:01.026Z,15.70
2022-09-24T22:16:28.795Z,15.80
2022-09-24T22:18:55.506Z,15.60
2022-09-24T22:21:21.986Z,15.80
2022-09-24T22:23:48.435Z,15.50
2022-09-24T22:26:15.012Z,15.30
2022-09-24T22:28:42.594Z,15.60
2022-09-24T22:31:11.976Z,15.80
2022-09-24T22:33:57.216Z,15.90
2022-09-24T22:36:23.749Z,15.80
2022-09-24T22:38:57.446Z,15.60
2022-09-24T22:41:24.205Z,15.70
2022-09-24T22:43:52.086Z,15.70
2022-09-24T22:46:19.436Z,15.70
2022-09-24T22:48:47.381Z,15.60
2022-09-24T22:51:14.458Z,15.60
2022-09-24T22:53:41.787Z,15.60
2022-09-24T22:56:17.147Z,15.60
2022-09-24T22:58:45.115Z,15.80
2022-09-24T23:01:15.447Z,15.50
2022-09-24T23:03:42.597Z,15.40
2022-09-24T23:06:09.764Z,15.60
2022-09-24T23:08:36.890Z,15.50
2022-09-24T23:11:17.470Z,15.40
2022-09-24T23:13:45.448Z,15.60
2022-09-24T23:16:13.168Z,15.60
2022-09-24T23:18:40.938Z,15.60
2022-09-24T23:21:09.104Z,15.60
2022-09-24T23:23:36.412Z,15.70
2022-09-24T23:26:16.248Z,15.90
2022-09-24T23:28:44.483Z,15.90
2022-09-24T23:31:14.197Z,15.50
2022-09-24T23:33:41.878Z,15.40
2022-09-24T23:36:10.670Z,15.30
2022-09-24T23:38:37.607Z,15.40
2022-09-24T23:41:05.296Z,15.50
2022-09-24T23:43:32.002Z,15.80
2022-09-24T23:45:58.583Z,15.50
2022-09-24T23:48:25.261Z,15.70
2022-09-24T23:50:51.821Z,15.60
2022-09-24T23:53:21.626Z,15.80
2022-09-24T23:55:49.283Z,15.80
2022-09-24T23:58:18.038Z,16.00
